createdAt,value
2019-03-27T00:01:48.816Z,92.07
2019-03-27T00:04:20.043Z,91.89
2019-03-27T00:06:51.101Z,92.48
2019-03-27T00:09:22.153Z,92.62
2019-03-27T00:11:53.185Z,92.90
2019-03-27T00:14:24.251Z,93.09
2019-03-27T00:16:55.482Z,93.29
2019-03-27T00:19:26.525Z,93.71
2019-03-27T00:21:58.076Z,93.74
2019-03-27T00:24:29.035Z,93.81
2019-03-27T00:26:59.973Z,94.04
2019-03-27T00:29:30.949Z,94.20
2019-03-27T00:32:01.999Z,94.65
2019-03-27T00:34:33.033Z,95.17
2019-03-27T00:37:04.109Z,95.11
2019-03-27T00:39:35.154Z,95.31
2019-03-27T00:42:06.251Z,95.34
2019-03-27T00:44:37.262Z,95.05
2019-03-27T00:47:08.267Z,95.04
2019-03-27T00:49:39.292Z,95.48
2019-03-27T00:52:10.249Z,96.25
2019-03-27T00:54:41.226Z,97.07
2019-03-27T00:57:12.363Z,97.95
2019-03-27T00:59:43.385Z,97.96
2019-03-27T01:02:14.495Z,97.79
2019-03-27T01:04:45.515Z,98.00
2019-03-27T01:07:16.557Z,98.24
2019-03-27T01:09:47.523Z,98.05
2019-03-27T01:12:18.543Z,98.14
2019-03-27T01:14:49.602Z,97.81
2019-03-27T01:17:20.764Z,98.11
2019-03-27T01:19:51.915Z,98.08
2019-03-27T01:22:22.933Z,98.13
2019-03-27T01:24:53.988Z,99.21
2019-03-27T01:27:24.999Z,99.99
2019-03-27T01:29:55.980Z,100.00
2019-03-27T01:32:27.021Z,100.00
2019-03-27T01:34:58.043Z,100.00
2019-03-27T01:37:29.020Z,100.00
2019-03-27T01:40:00.375Z,100.00
2019-03-27T01:42:31.349Z,100.00
2019-03-27T01:45:02.434Z,100.00
2019-03-27T01:47:33.541Z,100.00
2019-03-27T01:50:07.339Z,100.00
2019-03-27T01:52:38.411Z,100.00
2019-03-27T01:55:10.036Z,99.90
2019-03-27T01:57:41.003Z,99.92
2019-03-27T02:00:12.430Z,99.75
2019-03-27T02:02:43.462Z,99.56
2019-03-27T02:05:14.609Z,98.80
2019-03-27T02:07:45.580Z,98.66
2019-03-27T02:10:16.919Z,98.45
2019-03-27T02:12:47.870Z,98.30
2019-03-27T02:15:18.970Z,98.20
2019-03-27T02:17:49.859Z,98.33
2019-03-27T02:20:20.806Z,98.43
2019-03-27T02:22:51.747Z,98.16
2019-03-27T02:25:22.700Z,98.03
2019-03-27T02:27:53.605Z,98.05
2019-03-27T02:30:24.591Z,98.29
2019-03-27T02:32:55.540Z,98.55
2019-03-27T02:35:26.554Z,98.06
2019-03-27T02:37:57.551Z,97.74
2019-03-27T02:40:28.513Z,97.38
2019-03-27T02:42:59.478Z,97.93
2019-03-27T02:45:31.775Z,97.64
2019-03-27T02:48:02.813Z,97.61
2019-03-27T02:50:33.710Z,97.56
2019-03-27T02:53:04.857Z,97.40
2019-03-27T02:55:35.980Z,97.50
2019-03-27T02:58:06.882Z,97.58
2019-03-27T03:00:37.896Z,97.53
2019-03-27T03:03:08.859Z,97.15
2019-03-27T03:05:39.951Z,96.75
2019-03-27T03:08:10.910Z,96.75
2019-03-27T03:10:45.701Z,96.42
2019-03-27T03:13:14.531Z,96.33
2019-03-27T03:15:45.452Z,96.48
2019-03-27T03:18:16.397Z,96.34
2019-03-27T03:20:47.427Z,96.15
2019-03-27T03:23:18.433Z,96.51
2019-03-27T03:25:49.410Z,96.74
2019-03-27T03:28:20.370Z,96.18
2019-03-27T03:30:51.418Z,96.50
2019-03-27T03:33:22.516Z,96.33
2019-03-27T03:35:53.593Z,96.43
2019-03-27T03:38:24.512Z,96.56
2019-03-27T03:40:55.699Z,96.57
2019-03-27T03:43:26.912Z,96.87
2019-03-27T03:45:57.963Z,97.02
2019-03-27T03:48:29.105Z,97.21
2019-03-27T03:51:01.624Z,97.29
2019-03-27T03:53:33.252Z,97.51
2019-03-27T03:56:04.750Z,97.22
2019-03-27T03:58:37.937Z,97.32
2019-03-27T04:01:10.233Z,97.39
2019-03-27T04:03:43.205Z,97.65
2019-03-27T04:06:14.352Z,97.58
2019-03-27T04:08:45.230Z,97.86
2019-03-27T04:11:16.405Z,97.71
2019-03-27T04:13:47.347Z,97.73
2019-03-27T04:16:18.253Z,98.01
2019-03-27T04:18:49.285Z,98.33
2019-03-27T04:21:20.218Z,98.37
2019-03-27T04:23:51.109Z,98.27
2019-03-27T04:26:22.071Z,98.23
2019-03-27T04:28:53.065Z,98.36
2019-03-27T04:31:23.981Z,98.49
2019-03-27T04:33:54.954Z,98.16
2019-03-27T04:36:25.881Z,98.03
2019-03-27T04:38:56.766Z,97.54
2019-03-27T04:41:27.675Z,97.35
2019-03-27T04:43:58.692Z,97.27
2019-03-27T04:46:29.623Z,97.40
2019-03-27T04:49:00.679Z,97.44
2019-03-27T04:51:31.715Z,97.29
2019-03-27T04:54:02.705Z,97.30
2019-03-27T04:56:33.660Z,97.34
2019-03-27T04:59:04.847Z,97.42
2019-03-27T05:01:35.802Z,97.37
2019-03-27T05:04:07.931Z,97.21
2019-03-27T05:06:38.911Z,97.08
2019-03-27T05:09:10.489Z,97.02
2019-03-27T05:11:41.572Z,97.06
2019-03-27T05:14:12.496Z,96.99
2019-03-27T05:16:43.851Z,97.01
2019-03-27T05:19:15.042Z,97.37
2019-03-27T05:21:45.910Z,97.13
2019-03-27T05:24:16.959Z,97.16
2019-03-27T05:26:47.827Z,97.05
2019-03-27T05:29:18.790Z,97.07
2019-03-27T05:31:49.834Z,97.12
2019-03-27T05:34:21.238Z,96.93
2019-03-27T05:36:57.467Z,96.86
2019-03-27T05:39:30.033Z,97.08
2019-03-27T05:42:00.916Z,96.92
2019-03-27T05:44:31.823Z,96.99
2019-03-27T05:47:04.928Z,96.97
2019-03-27T05:49:36.061Z,97.03
2019-03-27T05:52:07.064Z,96.56
2019-03-27T05:54:38.279Z,96.41
2019-03-27T05:57:09.433Z,96.32
2019-03-27T05:59:44.145Z,96.10
2019-03-27T06:02:15.359Z,95.58
2019-03-27T06:04:46.301Z,95.21
2019-03-27T06:07:19.346Z,94.96
2019-03-27T06:09:50.279Z,94.63
2019-03-27T06:12:21.253Z,94.59
2019-03-27T06:14:53.868Z,93.90
2019-03-27T06:17:28.127Z,93.39
2019-03-27T06:19:59.206Z,93.25
2019-03-27T06:22:30.240Z,93.25
2019-03-27T06:25:01.281Z,93.30
2019-03-27T06:27:32.274Z,91.42
2019-03-27T06:30:03.841Z,91.65
2019-03-27T06:32:35.974Z,89.62
2019-03-27T06:35:08.544Z,88.99
2019-03-27T06:37:39.623Z,88.38
2019-03-27T06:40:10.974Z,87.66
2019-03-27T06:42:42.138Z,88.16
2019-03-27T06:45:13.175Z,86.49
2019-03-27T06:47:44.255Z,86.53
2019-03-27T06:50:16.312Z,86.22
2019-03-27T06:52:47.636Z,84.97
2019-03-27T06:55:18.966Z,84.75
2019-03-27T06:57:50.004Z,83.72
2019-03-27T07:00:24.115Z,83.48
2019-03-27T07:02:55.256Z,83.55
2019-03-27T07:05:26.433Z,82.69
2019-03-27T07:07:57.666Z,81.98
2019-03-27T07:10:28.684Z,81.58
2019-03-27T07:12:59.692Z,80.33
2019-03-27T07:15:31.082Z,80.22
2019-03-27T07:18:02.058Z,80.05
2019-03-27T07:20:33.108Z,79.22
2019-03-27T07:23:04.606Z,78.40
2019-03-27T07:25:36.524Z,77.87
2019-03-27T07:28:07.619Z,76.11
2019-03-27T07:30:38.600Z,74.19
2019-03-27T07:33:09.833Z,72.60
2019-03-27T07:35:40.869Z,73.11
2019-03-27T07:38:11.832Z,72.59
2019-03-27T07:40:43.132Z,73.23
2019-03-27T07:43:14.084Z,73.17
2019-03-27T07:45:45.156Z,73.69
2019-03-27T07:48:16.046Z,73.76
2019-03-27T07:50:47.043Z,73.21
2019-03-27T07:53:17.958Z,73.04
2019-03-27T07:55:48.940Z,72.74
2019-03-27T07:58:20.026Z,72.90
2019-03-27T08:00:50.900Z,72.31
2019-03-27T08:03:21.924Z,71.80
2019-03-27T08:05:53.058Z,72.00
2019-03-27T08:08:24.277Z,71.24
2019-03-27T08:10:55.374Z,71.63
2019-03-27T08:13:26.514Z,69.52
2019-03-27T08:15:57.542Z,66.62
2019-03-27T08:18:28.562Z,64.85
2019-03-27T08:20:59.585Z,64.18
2019-03-27T08:23:30.736Z,62.09
2019-03-27T08:26:01.731Z,60.43
2019-03-27T08:28:32.606Z,60.86
2019-03-27T08:31:03.679Z,60.17
2019-03-27T08:33:34.586Z,60.17
2019-03-27T08:36:05.576Z,57.54
2019-03-27T08:38:36.683Z,56.45
2019-03-27T08:41:07.629Z,55.63
2019-03-27T08:43:38.556Z,53.69
2019-03-27T08:46:09.588Z,53.04
2019-03-27T08:48:40.522Z,52.99
2019-03-27T08:51:11.468Z,50.88
2019-03-27T08:53:42.421Z,49.25
2019-03-27T08:56:13.517Z,49.39
2019-03-27T08:58:44.726Z,48.13
2019-03-27T09:01:15.729Z,47.66
2019-03-27T09:03:46.904Z,45.28
2019-03-27T09:06:17.866Z,43.84
2019-03-27T09:08:48.897Z,41.33
2019-03-27T09:11:20.387Z,42.73
2019-03-27T09:13:51.371Z,43.57
2019-03-27T09:16:22.429Z,43.74
2019-03-27T09:18:53.493Z,43.65
2019-03-27T09:21:24.543Z,43.93
2019-03-27T09:23:55.430Z,43.06
2019-03-27T09:26:26.645Z,43.72
2019-03-27T09:28:57.509Z,43.98
2019-03-27T09:31:28.493Z,42.75
2019-03-27T09:33:59.503Z,43.64
2019-03-27T09:36:30.531Z,43.34
2019-03-27T09:39:01.493Z,41.35
2019-03-27T09:41:32.614Z,41.00
2019-03-27T09:44:04.316Z,39.31
2019-03-27T09:46:35.307Z,39.79
2019-03-27T09:49:06.196Z,39.04
2019-03-27T09:51:37.183Z,39.99
2019-03-27T09:54:08.247Z,39.28
2019-03-27T09:56:41.945Z,38.26
2019-03-27T09:59:14.526Z,38.56
2019-03-27T10:01:45.598Z,36.92
2019-03-27T10:04:16.566Z,35.75
2019-03-27T10:06:47.441Z,33.89
2019-03-27T10:09:18.418Z,32.53
2019-03-27T10:11:49.337Z,33.11
2019-03-27T10:14:37.711Z,34.55
2019-03-27T10:17:08.797Z,34.81
2019-03-27T10:19:39.977Z,34.78
2019-03-27T10:22:10.886Z,36.40
2019-03-27T10:24:41.820Z,37.02
2019-03-27T10:27:12.859Z,35.75
2019-03-27T10:29:43.764Z,35.20
2019-03-27T10:32:14.698Z,35.29
2019-03-27T10:34:47.169Z,35.51
2019-03-27T10:37:26.660Z,37.19
2019-03-27T10:39:57.562Z,38.01
2019-03-27T10:42:29.329Z,35.68
2019-03-27T10:45:00.398Z,37.55
2019-03-27T10:47:31.299Z,36.93
2019-03-27T10:50:02.334Z,37.47
2019-03-27T10:52:33.292Z,37.40
2019-03-27T10:55:05.302Z,37.92
2019-03-27T10:57:36.210Z,38.79
2019-03-27T11:00:11.114Z,39.46
2019-03-27T11:02:42.232Z,40.03
2019-03-27T11:05:13.405Z,39.38
2019-03-27T11:07:44.830Z,39.28
2019-03-27T11:10:16.098Z,40.66
2019-03-27T11:12:47.117Z,40.18
2019-03-27T11:15:18.598Z,41.61
2019-03-27T11:17:49.615Z,41.40
2019-03-27T11:20:30.775Z,41.77
2019-03-27T11:22:53.602Z,41.83
2019-03-27T11:25:24.573Z,41.64
2019-03-27T11:27:55.542Z,40.41
2019-03-27T11:30:37.948Z,40.50
2019-03-27T11:33:09.397Z,41.23
2019-03-27T11:35:40.630Z,41.49
2019-03-27T11:38:11.675Z,40.87
2019-03-27T11:40:42.702Z,41.21
2019-03-27T11:43:13.744Z,40.59
2019-03-27T11:45:44.781Z,40.38
2019-03-27T11:48:15.984Z,41.40
2019-03-27T11:50:46.999Z,41.77
2019-03-27T11:53:18.000Z,41.32
2019-03-27T11:55:49.100Z,40.45
2019-03-27T11:58:20.664Z,40.56
2019-03-27T12:00:54.857Z,39.64
2019-03-27T12:03:24.282Z,39.68
2019-03-27T12:05:55.672Z,40.07
2019-03-27T12:08:26.758Z,40.14
2019-03-27T12:10:57.708Z,40.99
2019-03-27T12:13:28.748Z,41.62
2019-03-27T12:15:59.704Z,42.54
2019-03-27T12:18:32.162Z,41.84
2019-03-27T12:21:03.454Z,42.44
2019-03-27T12:23:35.258Z,41.61
2019-03-27T12:26:07.970Z,41.51
2019-03-27T12:28:44.629Z,41.73
2019-03-27T12:31:23.650Z,40.75
2019-03-27T12:33:55.180Z,40.09
2019-03-27T12:36:26.181Z,41.11
2019-03-27T12:38:57.184Z,40.84
2019-03-27T12:41:28.264Z,40.68
2019-03-27T12:44:02.430Z,39.52
2019-03-27T12:46:32.146Z,39.76
2019-03-27T12:49:03.278Z,41.18
2019-03-27T12:51:34.464Z,41.88
2019-03-27T12:54:06.604Z,42.79
2019-03-27T12:56:37.987Z,43.23
2019-03-27T12:59:09.022Z,41.87
2019-03-27T13:01:40.041Z,42.47
2019-03-27T13:04:12.862Z,41.56
2019-03-27T13:06:44.097Z,40.97
2019-03-27T13:09:15.723Z,41.45
2019-03-27T13:11:46.826Z,40.55
2019-03-27T13:14:18.010Z,40.09
2019-03-27T13:16:52.266Z,39.69
2019-03-27T13:19:25.037Z,38.59
2019-03-27T13:21:56.288Z,39.12
2019-03-27T13:24:30.877Z,39.71
2019-03-27T13:27:03.950Z,39.45
2019-03-27T13:29:35.243Z,40.55
2019-03-27T13:32:06.307Z,40.57
2019-03-27T13:34:37.371Z,41.49
2019-03-27T13:37:08.358Z,40.01
2019-03-27T13:39:41.028Z,39.71
2019-03-27T13:42:12.301Z,39.16
2019-03-27T13:44:43.591Z,39.26
2019-03-27T13:47:14.535Z,38.75
2019-03-27T13:49:45.667Z,39.73
2019-03-27T13:52:16.614Z,40.22
2019-03-27T13:54:47.592Z,39.18
2019-03-27T13:57:18.606Z,38.02
2019-03-27T13:59:49.675Z,37.57
2019-03-27T14:02:20.746Z,37.05
2019-03-27T14:04:52.064Z,36.13
2019-03-27T14:07:23.179Z,35.85
2019-03-27T14:09:54.144Z,36.15
2019-03-27T14:12:25.219Z,36.69
2019-03-27T14:14:57.760Z,36.27
2019-03-27T14:17:28.886Z,36.88
2019-03-27T14:20:02.838Z,36.06
2019-03-27T14:22:33.861Z,35.30
2019-03-27T14:25:07.730Z,34.75
2019-03-27T14:27:38.872Z,36.35
2019-03-27T14:30:12.625Z,37.59
2019-03-27T14:32:43.604Z,38.35
2019-03-27T14:35:14.649Z,39.14
2019-03-27T14:37:45.668Z,40.60
2019-03-27T14:40:16.877Z,42.33
2019-03-27T14:42:47.929Z,44.17
2019-03-27T14:45:18.943Z,43.73
2019-03-27T14:47:49.995Z,44.07
2019-03-27T14:50:20.897Z,44.11
2019-03-27T14:52:51.969Z,45.14
2019-03-27T14:55:22.941Z,45.31
2019-03-27T14:57:54.085Z,46.05
2019-03-27T15:00:25.270Z,45.55
2019-03-27T15:02:56.341Z,46.26
2019-03-27T15:05:27.561Z,46.99
2019-03-27T15:07:58.761Z,47.56
2019-03-27T15:10:29.605Z,47.86
2019-03-27T15:13:00.664Z,47.78
2019-03-27T15:15:31.621Z,47.58
2019-03-27T15:18:02.575Z,47.45
2019-03-27T15:20:33.579Z,47.95
2019-03-27T15:23:04.642Z,47.55
2019-03-27T15:25:35.668Z,47.02
2019-03-27T15:28:06.822Z,46.98
2019-03-27T15:30:37.791Z,46.34
2019-03-27T15:33:08.954Z,43.74
2019-03-27T15:35:39.848Z,41.42
2019-03-27T15:38:10.877Z,38.53
2019-03-27T15:40:44.390Z,37.56
2019-03-27T15:43:15.430Z,35.48
2019-03-27T15:45:46.540Z,35.65
2019-03-27T15:48:17.614Z,35.94
2019-03-27T15:50:55.516Z,37.89
2019-03-27T15:53:21.264Z,39.28
2019-03-27T15:55:52.446Z,40.40
2019-03-27T15:58:23.541Z,41.66
2019-03-27T16:00:54.570Z,41.08
2019-03-27T16:03:27.152Z,41.52
2019-03-27T16:05:58.918Z,42.87
2019-03-27T16:08:30.710Z,42.90
2019-03-27T16:11:01.692Z,42.67
2019-03-27T16:13:32.796Z,42.01
2019-03-27T16:16:03.961Z,41.88
2019-03-27T16:18:35.117Z,42.19
2019-03-27T16:21:06.466Z,41.70
2019-03-27T16:23:37.714Z,43.26
2019-03-27T16:26:09.012Z,43.37
2019-03-27T16:28:40.756Z,44.34
2019-03-27T16:31:12.242Z,45.35
2019-03-27T16:33:43.366Z,46.86
2019-03-27T16:36:14.628Z,47.34
2019-03-27T16:38:46.326Z,48.42
2019-03-27T16:41:17.496Z,48.54
2019-03-27T16:43:48.854Z,49.38
2019-03-27T16:46:19.952Z,49.43
2019-03-27T16:48:51.104Z,49.64
2019-03-27T16:51:22.138Z,49.96
2019-03-27T16:53:53.233Z,50.04
2019-03-27T16:56:25.534Z,50.22
2019-03-27T16:58:57.266Z,51.26
2019-03-27T17:01:28.875Z,51.55
2019-03-27T17:04:00.344Z,51.29
2019-03-27T17:06:31.536Z,52.23
2019-03-27T17:09:02.861Z,51.92
2019-03-27T17:11:34.030Z,52.82
2019-03-27T17:14:05.148Z,52.93
2019-03-27T17:16:36.296Z,53.29
2019-03-27T17:19:07.355Z,53.94
2019-03-27T17:21:38.371Z,54.27
2019-03-27T17:24:09.575Z,54.01
2019-03-27T17:26:40.822Z,54.56
2019-03-27T17:29:39.160Z,54.76
2019-03-27T17:32:17.661Z,54.79
2019-03-27T17:34:51.816Z,55.40
2019-03-27T17:37:21.458Z,55.69
2019-03-27T17:39:52.504Z,55.71
2019-03-27T17:42:23.684Z,56.21
2019-03-27T17:44:54.721Z,56.08
2019-03-27T17:47:25.806Z,56.42
2019-03-27T17:49:57.525Z,56.72
2019-03-27T17:52:28.671Z,56.90
2019-03-27T17:54:59.909Z,56.91
2019-03-27T17:57:30.885Z,57.41
2019-03-27T18:00:02.155Z,57.32
2019-03-27T18:02:33.171Z,57.48
2019-03-27T18:05:05.914Z,57.28
2019-03-27T18:07:36.957Z,58.04
2019-03-27T18:10:08.377Z,57.73
2019-03-27T18:12:39.393Z,58.24
2019-03-27T18:15:10.708Z,58.03
2019-03-27T18:17:41.892Z,58.64
2019-03-27T18:20:12.960Z,58.63
2019-03-27T18:22:43.993Z,58.55
2019-03-27T18:25:15.217Z,58.60
2019-03-27T18:27:46.112Z,58.38
2019-03-27T18:30:17.261Z,58.71
2019-03-27T18:32:48.239Z,58.81
2019-03-27T18:35:19.280Z,59.09
2019-03-27T18:37:50.435Z,58.70
2019-03-27T18:40:21.469Z,59.09
2019-03-27T18:42:52.601Z,59.26
2019-03-27T18:45:23.640Z,59.42
2019-03-27T18:47:54.608Z,59.22
2019-03-27T18:50:25.620Z,59.14
2019-03-27T18:52:56.765Z,59.32
2019-03-27T18:55:27.937Z,59.84
2019-03-27T18:58:00.604Z,60.84
2019-03-27T19:00:32.031Z,60.35
2019-03-27T19:03:03.323Z,60.26
2019-03-27T19:05:34.217Z,60.12
2019-03-27T19:08:05.322Z,60.02
2019-03-27T19:10:36.392Z,59.95
2019-03-27T19:13:07.688Z,59.66
2019-03-27T19:15:38.793Z,59.81
2019-03-27T19:18:10.148Z,59.88
2019-03-27T19:20:41.161Z,59.83
2019-03-27T19:23:12.234Z,59.97
2019-03-27T19:25:43.255Z,60.10
2019-03-27T19:28:14.275Z,60.33
2019-03-27T19:30:45.311Z,60.26
2019-03-27T19:33:16.342Z,60.59
2019-03-27T19:35:47.515Z,60.87
2019-03-27T19:38:18.467Z,60.81
2019-03-27T19:40:49.430Z,60.65
2019-03-27T19:43:20.372Z,60.62
2019-03-27T19:46:01.288Z,60.56
2019-03-27T19:48:35.972Z,60.60
2019-03-27T19:51:07.052Z,60.63
2019-03-27T19:53:38.040Z,60.45
2019-03-27T19:56:09.049Z,60.69
2019-03-27T19:58:40.085Z,61.97
2019-03-27T20:01:11.111Z,62.26
2019-03-27T20:03:42.078Z,62.30
2019-03-27T20:06:13.250Z,62.72
2019-03-27T20:08:44.462Z,63.14
2019-03-27T20:11:18.055Z,63.41
2019-03-27T20:13:49.560Z,63.53
2019-03-27T20:16:20.653Z,63.60
2019-03-27T20:18:51.848Z,63.58
2019-03-27T20:21:23.110Z,63.76
2019-03-27T20:23:54.050Z,63.59
2019-03-27T20:26:25.566Z,63.65
2019-03-27T20:28:56.562Z,63.71
2019-03-27T20:31:27.524Z,63.84
2019-03-27T20:33:58.538Z,64.59
2019-03-27T20:36:30.186Z,65.00
2019-03-27T20:39:04.599Z,65.54
2019-03-27T20:41:35.699Z,66.32
2019-03-27T20:44:07.026Z,65.96
2019-03-27T20:46:38.115Z,65.87
2019-03-27T20:49:09.575Z,66.01
2019-03-27T20:51:40.453Z,66.20
2019-03-27T20:54:11.502Z,66.51
2019-03-27T20:56:42.627Z,66.90
2019-03-27T20:59:13.643Z,66.96
2019-03-27T21:01:44.705Z,66.66
2019-03-27T21:04:15.717Z,66.80
2019-03-27T21:06:48.426Z,66.36
2019-03-27T21:09:19.389Z,66.66
2019-03-27T21:11:50.402Z,66.79
2019-03-27T21:14:21.682Z,67.03
2019-03-27T21:16:52.740Z,67.16
2019-03-27T21:19:23.969Z,67.15
2019-03-27T21:21:55.444Z,67.69
2019-03-27T21:24:26.537Z,67.56
2019-03-27T21:26:57.501Z,67.79
2019-03-27T21:29:28.615Z,67.46
2019-03-27T21:31:59.667Z,67.82
2019-03-27T21:34:30.910Z,67.41
2019-03-27T21:37:01.953Z,67.45
2019-03-27T21:39:32.893Z,67.36
2019-03-27T21:42:04.091Z,67.33
2019-03-27T21:44:34.974Z,67.28
2019-03-27T21:47:05.930Z,67.49
2019-03-27T21:49:36.901Z,67.43
2019-03-27T21:52:07.893Z,67.48
2019-03-27T21:54:39.002Z,67.57
2019-03-27T21:57:10.143Z,68.51
2019-03-27T21:59:41.301Z,68.67
2019-03-27T22:02:12.267Z,68.25
2019-03-27T22:04:43.372Z,68.74
2019-03-27T22:07:14.379Z,69.49
2019-03-27T22:09:45.427Z,69.22
2019-03-27T22:12:16.614Z,69.28
2019-03-27T22:14:47.613Z,70.24
2019-03-27T22:17:18.619Z,70.15
2019-03-27T22:19:49.585Z,71.00
2019-03-27T22:22:20.939Z,70.84
2019-03-27T22:24:51.919Z,70.78
2019-03-27T22:27:22.773Z,71.08
2019-03-27T22:29:53.819Z,70.87
2019-03-27T22:32:24.907Z,70.94
2019-03-27T22:34:55.781Z,71.25
2019-03-27T22:37:41.027Z,71.35
2019-03-27T22:40:12.375Z,71.64
2019-03-27T22:42:43.354Z,72.21
2019-03-27T22:45:14.590Z,72.57
2019-03-27T22:47:45.503Z,72.23
2019-03-27T22:50:16.636Z,71.88
2019-03-27T22:52:49.616Z,72.19
2019-03-27T22:55:20.659Z,72.41
2019-03-27T22:57:51.952Z,72.54
2019-03-27T23:00:25.293Z,72.46
2019-03-27T23:02:57.999Z,72.61
2019-03-27T23:05:30.313Z,72.48
2019-03-27T23:08:01.500Z,73.10
2019-03-27T23:10:32.639Z,74.11
2019-03-27T23:13:03.826Z,74.21
2019-03-27T23:15:35.463Z,74.10
2019-03-27T23:18:06.537Z,74.02
2019-03-27T23:20:37.520Z,74.15
2019-03-27T23:23:08.485Z,74.38
2019-03-27T23:25:39.543Z,74.29
2019-03-27T23:28:10.522Z,74.30
2019-03-27T23:30:41.601Z,74.23
2019-03-27T23:33:12.636Z,74.58
2019-03-27T23:35:44.216Z,74.74
2019-03-27T23:38:15.588Z,75.03
2019-03-27T23:40:46.631Z,74.91
2019-03-27T23:43:17.632Z,75.23
2019-03-27T23:45:48.672Z,74.52
2019-03-27T23:48:19.564Z,73.74
2019-03-27T23:50:50.592Z,73.62
2019-03-27T23:53:21.632Z,73.19
2019-03-27T23:55:52.747Z,73.19
2019-03-27T23:58:23.722Z,73.28
